Terminal Aerodrome Forecast
Issued by NWS

Home | Current Version | Previous Version | Text Only | Print | Product List | Glossary On
Versions: 1 2 3 4 5 6 7 8 9 10 11 12 13 14 15
000
FTUS44 KLZK 291739
TAFPBF
TAF
KPBF 291739Z 2918/3018 13008KT 5SM TSRA BR OVC025CB
      TEMPO 2918/2922 2SM TSRA BR OVC008CB
     FM292200 11009KT P6SM -SHRA OVC025
     FM300300 12013G23KT 4SM TSRA BR OVC007CB
     FM301200 15005KT 1SM TSRA BR OVC005CB
     FM301500 19010KT P6SM OVC015=

USA.gov is the U.S. government's official web portal to all federal, state and local government web resources and services.